Time;durP1;ratioP1;P1;durP2;ratioP2;P2;SDS_P1;SDS_P2;PMS_P1;PMS_P2;Temp;Humidity;BMP_temperature;BMP_pressure;BME280_temperature;BME280_humidity;BME280_pressure;Samples;Min_cycle;Max_cycle;Signal;HPM_P1;HPM_P2
2021/01/26 00:01:08;;;;;;;3.20;1.40;;;;;;;8.48;78.68;96776.55;1768699;81;21566;-43
2021/01/26 00:03:36;;;;;;;1.65;1.20;;;;;;;8.39;78.37;96805.98;1768341;81;21179;-43
2021/01/26 00:06:05;;;;;;;1.70;1.07;;;;;;;8.03;70.75;96805.67;1718053;81;21179;-43
2021/01/26 00:08:34;;;;;;;2.40;1.30;;;;;;;7.35;68.56;96811.03;1708180;82;21190;-43
2021/01/26 00:11:05;;;;;;;1.52;1.20;;;;;;;6.59;69.98;96822.01;1737716;81;21564;-43
2021/01/26 00:13:34;;;;;;;0.85;0.85;;;;;;;5.86;71.28;96831.94;1737618;82;21031;-44
2021/01/26 00:16:04;;;;;;;0.90;0.90;;;;;;;5.29;72.73;96826.70;1716369;82;21191;-43
2021/01/26 00:18:32;;;;;;;1.30;1.20;;;;;;;4.90;73.60;96829.98;1694886;83;21204;-43
2021/01/26 00:21:00;;;;;;;2.60;1.70;;;;;;;4.54;74.63;96825.94;1753369;80;21255;-43
2021/01/26 00:23:29;;;;;;;2.33;1.60;;;;;;;4.24;75.17;96831.62;1780401;80;21164;-43
2021/01/26 00:25:57;;;;;;;1.98;1.40;;;;;;;4.06;75.59;96836.16;1780026;80;21635;-43
2021/01/26 00:28:25;;;;;;;1.60;1.50;;;;;;;3.86;75.96;96837.61;1780670;80;20947;-43
2021/01/26 00:30:54;;;;;;;1.85;1.50;;;;;;;3.63;76.36;96843.22;1769942;80;21365;-43
2021/01/26 00:33:23;;;;;;;1.50;1.40;;;;;;;3.46;76.87;96846.58;1769477;81;21367;-43
2021/01/26 00:35:51;;;;;;;1.80;1.70;;;;;;;3.39;77.20;96866.60;1769648;80;21534;-43
2021/01/26 00:38:20;;;;;;;2.52;1.50;;;;;;;3.23;77.46;96879.52;1769418;81;21167;-43
2021/01/26 00:40:48;;;;;;;1.50;1.40;;;;;;;3.06;77.45;96868.85;1769490;81;21476;-43
2021/01/26 00:43:17;;;;;;;1.60;1.45;;;;;;;2.97;77.43;96875.86;1769537;81;21127;-43
2021/01/26 00:45:46;;;;;;;1.50;1.40;;;;;;;2.88;77.76;96871.39;1769754;81;22036;-43
2021/01/26 00:48:17;;;;;;;1.85;1.75;;;;;;;2.74;78.06;96873.17;1769353;81;21143;-43
2021/01/26 00:50:46;;;;;;;1.90;1.70;;;;;;;2.65;78.20;96867.35;1769473;81;21605;-43
2021/01/26 00:53:15;;;;;;;1.50;1.37;;;;;;;2.60;78.20;96895.20;1769683;81;21120;-43
2021/01/26 00:55:46;;;;;;;2.20;1.80;;;;;;;2.49;78.09;96878.27;1767756;81;21151;-43
2021/01/26 00:58:15;;;;;;;1.70;1.50;;;;;;;2.43;78.35;96882.41;1769419;81;21145;-43
2021/01/26 01:00:45;;;;;;;1.67;1.42;;;;;;;2.39;78.46;96886.95;1769374;81;21171;-43
2021/01/26 01:03:15;;;;;;;1.60;1.50;;;;;;;2.33;78.39;96887.84;1769689;81;21154;-43
2021/01/26 01:05:43;;;;;;;1.90;1.57;;;;;;;2.27;78.74;96889.31;1769685;81;21130;-43
2021/01/26 01:08:11;;;;;;;1.72;1.50;;;;;;;2.21;78.82;96892.10;1769533;81;21116;-43
2021/01/26 01:10:40;;;;;;;2.00;1.80;;;;;;;2.21;78.67;96892.10;1769641;81;23513;-43
2021/01/26 01:13:10;;;;;;;1.85;1.62;;;;;;;2.16;78.79;96887.85;1769523;80;21170;-43
2021/01/26 01:15:39;;;;;;;1.70;1.50;;;;;;;2.10;78.84;96908.01;1769810;81;21650;-43
2021/01/26 01:18:08;;;;;;;;;;;;;;;2.03;79.16;96911.91;1774531;79;21617;-43
2021/01/26 01:20:37;;;;;;;1.62;1.52;;;;;;;1.99;79.09;96913.77;1779321;80;20223;-43
2021/01/26 01:23:05;;;;;;;1.60;1.50;;;;;;;1.89;79.45;96926.42;1779129;80;21157;-42
2021/01/26 01:25:35;;;;;;;1.67;1.45;;;;;;;1.86;79.51;96937.07;1779234;80;21198;-43
2021/01/26 01:28:05;;;;;;;2.10;1.55;;;;;;;1.87;79.61;96923.36;1779274;80;21119;-43
2021/01/26 01:30:34;;;;;;;2.08;1.75;;;;;;;1.87;79.55;96925.27;1783945;80;21210;-43
2021/01/26 01:33:05;;;;;;;1.62;1.47;;;;;;;1.85;79.84;96924.84;1784850;80;21205;-43
2021/01/26 01:35:34;;;;;;;2.52;1.77;;;;;;;1.83;79.82;96935.91;1784929;80;22118;-43
2021/01/26 01:38:02;;;;;;;2.00;1.80;;;;;;;1.84;79.76;96958.05;1784655;80;21063;-43
2021/01/26 01:40:33;;;;;;;1.60;1.47;;;;;;;1.81;79.99;96956.85;1784724;80;21016;-43
2021/01/26 01:43:01;;;;;;;1.82;1.72;;;;;;;1.77;80.23;96976.07;1784669;80;21023;-43
2021/01/26 01:45:30;;;;;;;1.92;1.70;;;;;;;1.78;80.28;96970.94;1784759;80;21448;-43
2021/01/26 01:48:04;;;;;;;1.77;1.67;;;;;;;1.77;80.21;96979.30;1784784;80;21376;-43
2021/01/26 01:50:46;;;;;;;1.92;1.60;;;;;;;1.69;80.50;96972.51;1784754;80;21612;-43
2021/01/26 01:53:40;;;;;;;2.50;2.08;;;;;;;1.66;80.53;96980.48;1784784;80;21648;-43
2021/01/26 01:56:29;;;;;;;5.87;2.50;;;;;;;1.63;80.41;96989.98;1784644;80;21036;-43
2021/01/26 01:59:01;;;;;;;2.50;2.00;;;;;;;1.63;80.71;96986.55;1781952;80;21221;-44
2021/01/26 02:01:29;;;;;;;2.40;2.20;;;;;;;1.56;80.81;97001.88;1765514;80;21218;-44
2021/01/26 02:04:02;;;;;;;2.90;1.77;;;;;;;1.57;80.77;97016.00;1763903;81;21652;-44
2021/01/26 02:06:34;;;;;;;1.90;1.70;;;;;;;1.54;80.68;97015.39;1763956;81;21178;-44
2021/01/26 02:09:18;;;;;;;2.12;1.70;;;;;;;1.50;80.76;97030.59;1763896;80;21650;-44
2021/01/26 02:11:46;;;;;;;2.20;1.70;;;;;;;1.43;80.98;97033.91;1764060;80;21631;-44
2021/01/26 02:14:15;;;;;;;1.65;1.52;;;;;;;1.44;80.91;97042.69;1764017;81;22016;-44
2021/01/26 02:17:26;;;;;;;1.50;1.37;;;;;;;1.39;80.88;97054.43;1763894;81;21003;-44
2021/01/26 02:20:36;;;;;;;1.65;1.40;;;;;;;1.33;80.95;97056.41;1782159;79;21547;-43
2021/01/26 02:23:39;;;;;;;1.72;1.37;;;;;;;1.31;81.17;97070.09;1786001;80;21839;-43
2021/01/26 02:26:35;;;;;;;1.90;1.50;;;;;;;1.33;81.12;97091.10;1769167;80;21129;-43
2021/01/26 02:29:17;;;;;;;1.80;1.45;;;;;;;1.25;81.19;97081.65;1783254;79;21365;-43
2021/01/26 02:32:04;;;;;;;1.80;1.62;;;;;;;1.24;81.31;97089.44;1772628;81;21116;-43
2021/01/26 02:34:50;;;;;;;2.47;2.20;;;;;;;1.26;81.19;97080.50;1772691;81;21580;-43
2021/01/26 02:37:50;;;;;;;2.50;2.10;;;;;;;1.19;81.36;97084.95;1772570;81;21016;-43
2021/01/26 02:40:24;;;;;;;;;;;;;;;1.20;81.17;97087.83;1775259;81;21119;-43
2021/01/26 02:43:21;;;;;;;4.42;3.15;;;;;;;1.20;80.80;97093.94;1772610;81;21364;-43
2021/01/26 02:46:11;;;;;;;5.78;4.03;;;;;;;1.11;80.88;97093.95;1772576;81;21159;-43
2021/01/26 02:48:51;;;;;;;7.42;4.60;;;;;;;1.18;80.44;97106.08;1772668;81;21159;-43
2021/01/26 02:51:51;;;;;;;6.92;5.17;;;;;;;1.23;80.10;97109.80;1772708;81;21202;-43
2021/01/26 02:54:33;;;;;;;7.40;4.42;;;;;;;1.21;80.23;97112.81;1835873;78;22687;-43
2021/01/26 02:57:27;;;;;;;7.90;5.85;;;;;;;1.15;80.14;97122.25;1808219;79;21596;-43
2021/01/26 03:00:19;;;;;;;9.88;5.95;;;;;;;1.17;80.24;97105.30;1808334;79;21367;-43
2021/01/26 03:03:01;;;;;;;8.13;5.70;;;;;;;1.13;80.43;97133.83;1808046;79;21032;-42
2021/01/26 03:05:34;;;;;;;8.80;5.50;;;;;;;1.12;79.66;97134.94;1808322;79;21581;-42
2021/01/26 03:08:12;;;;;;;7.80;6.05;;;;;;;1.15;79.48;97130.81;1806332;79;21031;-42
2021/01/26 03:10:47;;;;;;;9.73;5.97;;;;;;;1.11;79.18;97128.08;1808264;79;21154;-43
2021/01/26 03:13:15;;;;;;;9.53;6.47;;;;;;;1.15;78.89;97122.25;1808146;79;21202;-43
2021/01/26 03:15:52;;;;;;;9.03;6.30;;;;;;;1.21;78.35;97137.42;1808063;79;21310;-42
2021/01/26 03:18:22;;;;;;;8.98;7.00;;;;;;;1.23;78.73;97136.48;1806660;79;21047;-43
2021/01/26 03:20:54;;;;;;;9.98;6.97;;;;;;;1.17;78.34;97126.66;1778085;79;21142;-42
2021/01/26 03:23:24;;;;;;;;;;;;;;;1.23;78.24;97151.94;1810878;79;21159;-43
2021/01/26 03:25:52;;;;;;;11.10;7.60;;;;;;;1.22;78.05;97133.05;1803579;79;21418;-42
2021/01/26 03:28:23;;;;;;;10.03;7.47;;;;;;;1.14;78.48;97135.37;1777167;79;21150;-43
2021/01/26 03:30:53;;;;;;;9.38;7.50;;;;;;;1.19;78.22;97140.43;1778171;79;22108;-43
2021/01/26 03:33:33;;;;;;;10.32;7.85;;;;;;;1.23;77.91;97131.15;1776324;80;21126;-43
2021/01/26 03:36:02;;;;;;;11.10;7.75;;;;;;;1.20;77.90;97133.20;1776386;80;21086;-43
2021/01/26 03:38:32;;;;;;;11.20;8.48;;;;;;;1.21;77.64;97146.17;1746585;80;21209;-43
2021/01/26 03:41:02;;;;;;;11.18;8.43;;;;;;;1.26;77.29;97161.91;1776417;80;21047;-43
2021/01/26 03:43:30;;;;;;;;;;;;;;;1.24;77.32;97161.50;1779088;80;21147;-43
2021/01/26 03:46:20;;;;;;;13.68;9.35;;;;;;;1.23;77.47;97153.27;1776300;80;20207;-43
2021/01/26 03:48:59;;;;;;;12.80;9.18;;;;;;;1.23;77.09;97177.86;1776252;80;21024;-43
2021/01/26 03:51:39;;;;;;;12.58;9.75;;;;;;;1.25;77.54;97188.97;1719870;80;22356;-43
2021/01/26 03:54:38;;;;;;;13.35;9.35;;;;;;;1.23;77.39;97182.63;1768607;80;21550;-43
2021/01/26 03:57:33;;;;;;;10.18;7.80;;;;;;;1.26;77.09;97199.27;1765672;80;21144;-43
2021/01/26 04:01:14;;;;;;;13.45;9.65;;;;;;;1.28;77.30;97202.38;1775551;79;22754;-43
2021/01/26 04:04:09;;;;;;;14.40;9.33;;;;;;;1.18;77.31;97206.93;1743718;81;21020;-43
2021/01/26 04:06:56;;;;;;;13.53;9.98;;;;;;;1.28;77.18;97219.72;1808063;78;22771;-43
2021/01/26 04:09:27;;;;;;;13.25;9.73;;;;;;;1.22;77.03;97223.78;1784111;80;20948;-43
2021/01/26 04:12:17;;;;;;;14.60;9.73;;;;;;;1.19;77.03;97216.48;1784079;80;21334;-43
2021/01/26 04:15:10;;;;;;;14.47;10.38;;;;;;;1.22;76.94;97221.67;1755813;80;21027;-43
2021/01/26 04:17:42;;;;;;;14.00;10.00;;;;;;;1.25;76.96;97231.67;1783766;80;21181;-43
2021/01/26 04:20:21;;;;;;;13.45;10.13;;;;;;;1.18;77.29;97232.28;1744333;82;21647;-42
2021/01/26 04:22:57;;;;;;;12.58;9.80;;;;;;;1.21;77.22;97237.50;1749401;82;21000;-43
2021/01/26 04:25:32;;;;;;;13.25;9.75;;;;;;;1.27;76.49;97233.41;1689099;83;21600;-43
2021/01/26 04:28:03;;;;;;;13.15;9.35;;;;;;;1.22;75.99;97239.02;1749107;81;20988;-43
2021/01/26 04:30:31;;;;;;;13.25;9.68;;;;;;;1.20;76.16;97226.05;1774216;80;20996;-43
2021/01/26 04:33:03;;;;;;;12.37;9.50;;;;;;;1.26;76.00;97251.31;1780057;80;21149;-43
2021/01/26 04:35:32;;;;;;;13.70;10.32;;;;;;;1.24;75.63;97222.89;1780210;80;21671;-43
2021/01/26 04:38:00;;;;;;;14.45;9.25;;;;;;;1.25;75.84;97243.68;1780175;80;22403;-43
2021/01/26 04:40:28;;;;;;;12.47;9.55;;;;;;;1.24;75.29;97234.89;1780048;80;21047;-42
2021/01/26 04:43:14;;;;;;;12.40;9.20;;;;;;;1.30;74.82;97248.19;1780103;80;21131;-43
2021/01/26 04:46:07;;;;;;;11.40;8.30;;;;;;;1.32;75.27;97246.48;1764321;80;21174;-42
2021/01/26 04:48:52;;;;;;;11.15;8.18;;;;;;;1.29;75.02;97265.31;1780176;80;21174;-42
2021/01/26 04:51:44;;;;;;;12.98;7.55;;;;;;;1.30;74.21;97244.73;1758276;80;21293;-43
2021/01/26 04:54:39;;;;;;;9.38;7.50;;;;;;;1.27;73.89;97259.55;1748651;82;21171;-43
2021/01/26 04:57:37;;;;;;;11.55;7.62;;;;;;;1.27;74.55;97266.22;1749212;82;21187;-42
2021/01/26 05:00:23;;;;;;;10.43;7.45;;;;;;;1.34;74.12;97274.17;1749214;82;21086;-43
2021/01/26 05:03:33;;;;;;;10.10;7.85;;;;;;;1.27;74.34;97271.55;1735787;82;21093;-42
2021/01/26 05:06:05;;;;;;;9.80;7.55;;;;;;;1.28;74.15;97257.66;1741432;82;22134;-43
2021/01/26 05:08:39;;;;;;;9.95;7.53;;;;;;;1.27;74.06;97278.22;1739235;82;21090;-43
2021/01/26 05:11:20;;;;;;;9.83;7.75;;;;;;;1.29;74.21;97263.20;1739100;82;21130;-43
2021/01/26 05:13:53;;;;;;;10.40;7.50;;;;;;;1.36;74.34;97265.23;1739179;82;21166;-42
2021/01/26 05:16:26;;;;;;;9.43;7.62;;;;;;;1.37;74.22;97286.81;1738367;82;21544;-43
2021/01/26 05:19:17;;;;;;;10.65;7.37;;;;;;;1.34;74.47;97289.63;1738791;82;21569;-43
2021/01/26 05:22:06;;;;;;;11.78;8.05;;;;;;;1.38;74.15;97283.02;1719999;82;21147;-42
2021/01/26 05:24:42;;;;;;;9.88;7.33;;;;;;;1.37;73.99;97284.91;1768547;81;22196;-42
2021/01/26 05:27:10;;;;;;;8.73;6.95;;;;;;;1.34;74.30;97300.30;1768556;81;21190;-43
2021/01/26 05:29:39;;;;;;;9.60;7.33;;;;;;;1.39;74.30;97311.27;1768624;81;21183;-43
2021/01/26 05:32:08;;;;;;;9.85;7.22;;;;;;;1.42;74.30;97294.55;1713624;82;21642;-43
2021/01/26 05:34:38;;;;;;;8.20;6.30;;;;;;;1.40;74.32;97304.26;1770392;80;21190;-42
2021/01/26 05:37:09;;;;;;;8.67;6.90;;;;;;;1.41;74.06;97313.02;1736861;82;21159;-43
2021/01/26 05:40:09;;;;;;;9.58;7.03;;;;;;;1.47;73.89;97312.96;1768549;81;21174;-43
2021/01/26 05:42:38;;;;;;;8.78;6.25;;;;;;;1.46;73.92;97326.09;1768631;80;21159;-43
2021/01/26 05:45:11;;;;;;;6.97;5.78;;;;;;;1.47;74.13;97320.97;1736419;82;21478;-43
2021/01/26 05:47:40;;;;;;;8.28;6.00;;;;;;;1.50;73.34;97326.97;1768579;81;21048;-43
2021/01/26 05:50:22;;;;;;;8.45;6.08;;;;;;;1.48;73.47;97327.30;1736504;82;21175;-43
2021/01/26 05:52:50;;;;;;;8.35;5.80;;;;;;;1.48;73.80;97333.20;1766639;81;21163;-42
2021/01/26 05:55:25;;;;;;;9.03;6.28;;;;;;;1.51;73.65;97339.95;1736470;82;21167;-42
2021/01/26 05:57:53;;;;;;;6.83;5.47;;;;;;;1.51;73.27;97325.27;1768606;81;21368;-43
2021/01/26 06:00:27;;;;;;;7.47;5.30;;;;;;;1.49;73.40;97334.20;1736379;82;21219;-42
2021/01/26 06:03:20;;;;;;;7.05;5.12;;;;;;;1.48;72.99;97323.86;1736517;82;21166;-42
2021/01/26 06:06:14;;;;;;;8.45;5.60;;;;;;;1.56;73.22;97334.89;1772043;80;21182;-43
2021/01/26 06:08:57;;;;;;;7.15;5.30;;;;;;;1.51;73.31;97347.95;1814589;79;21170;-43
2021/01/26 06:11:29;;;;;;;7.60;4.83;;;;;;;1.51;73.39;97351.19;1815531;79;21266;-43
2021/01/26 06:14:14;;;;;;;7.03;5.33;;;;;;;1.57;72.95;97352.47;1815448;78;21158;-43
2021/01/26 06:16:42;;;;;;;7.20;5.00;;;;;;;1.55;73.07;97368.09;1815548;79;21019;-43
2021/01/26 06:19:14;;;;;;;7.70;4.53;;;;;;;1.56;73.19;97376.28;1815437;79;21141;-43
2021/01/26 06:21:51;;;;;;;5.95;4.62;;;;;;;1.57;72.68;97383.18;1815492;79;21126;-43
2021/01/26 06:24:23;;;;;;;6.50;4.28;;;;;;;1.57;72.78;97378.62;1815651;79;22105;-43
2021/01/26 06:27:18;;;;;;;5.50;4.10;;;;;;;1.55;72.92;97389.45;1815379;79;21008;-43
2021/01/26 06:30:10;;;;;;;4.83;3.90;;;;;;;1.57;72.83;97393.86;1818359;78;21047;-42
2021/01/26 06:33:07;;;;;;;5.87;4.03;;;;;;;1.62;72.68;97394.93;1821507;78;21560;-42
2021/01/26 06:36:06;;;;;;;6.45;3.72;;;;;;;1.57;72.50;97395.20;1821518;78;21134;-42
2021/01/26 06:39:08;;;;;;;4.80;3.80;;;;;;;1.58;72.51;97400.20;1821613;78;22071;-43
2021/01/26 06:42:09;;;;;;;4.92;3.75;;;;;;;1.63;72.36;97428.53;1821553;78;21169;-42
2021/01/26 06:45:19;;;;;;;3.70;3.35;;;;;;;1.59;71.93;97422.34;1787260;78;21114;-42
2021/01/26 06:48:08;;;;;;;4.55;3.08;;;;;;;1.53;72.12;97435.18;1821770;78;21655;-43
2021/01/26 06:51:10;;;;;;;4.30;3.22;;;;;;;1.53;71.69;97444.53;1821506;78;20991;-43
2021/01/26 06:54:24;;;;;;;7.08;4.35;;;;;;;1.53;72.19;97445.09;1777685;80;21208;-42
2021/01/26 06:57:28;;;;;;;3.90;3.20;;;;;;;1.55;72.10;97452.20;1769801;81;21139;-42
2021/01/26 07:00:15;;;;;;;4.87;3.42;;;;;;;1.63;71.72;97447.23;1836017;78;22726;-43
2021/01/26 07:03:29;;;;;;;3.83;2.75;;;;;;;1.59;71.64;97455.73;1808301;79;20996;-43
2021/01/26 07:06:21;;;;;;;4.15;3.10;;;;;;;1.58;71.33;97488.89;1808287;79;21462;-43
2021/01/26 07:09:31;;;;;;;4.92;3.02;;;;;;;1.53;71.29;97470.45;1780633;79;20988;-42
2021/01/26 07:12:44;;;;;;;3.65;3.00;;;;;;;1.59;71.33;97467.74;1808183;79;21119;-43
2021/01/26 07:15:34;;;;;;;4.60;2.90;;;;;;;1.57;71.20;97474.75;1808181;79;21032;-43
2021/01/26 07:18:32;;;;;;;3.95;3.00;;;;;;;1.57;71.33;97473.42;1808080;79;21325;-43
2021/01/26 07:21:28;;;;;;;3.47;2.62;;;;;;;1.56;71.64;97487.11;1807546;79;22132;-42
2021/01/26 07:24:27;;;;;;;4.10;2.92;;;;;;;1.58;71.79;97488.33;1777509;79;21251;-43
2021/01/26 07:27:42;;;;;;;3.50;2.90;;;;;;;1.61;71.80;97491.63;1805194;79;20937;-45
2021/01/26 07:30:25;;;;;;;3.47;2.45;;;;;;;1.60;71.30;97501.31;1787121;79;21202;-43
2021/01/26 07:33:04;;;;;;;3.95;2.90;;;;;;;1.57;71.31;97509.47;1776350;80;21083;-43
2021/01/26 07:35:54;;;;;;;3.02;2.70;;;;;;;1.60;71.28;97512.00;1776797;80;22378;-43
2021/01/26 07:38:54;;;;;;;3.70;2.67;;;;;;;1.59;71.53;97488.55;1776336;80;21118;-42
2021/01/26 07:41:36;;;;;;;4.00;2.87;;;;;;;1.62;71.59;97515.11;1776303;80;21035;-42
2021/01/26 07:44:25;;;;;;;4.20;2.65;;;;;;;1.55;71.66;97514.38;1776278;80;21015;-43
2021/01/26 07:47:04;;;;;;;4.45;2.50;;;;;;;1.55;71.43;97516.30;1776345;80;21110;-43
2021/01/26 07:49:44;;;;;;;3.70;2.40;;;;;;;1.56;71.26;97529.84;1776594;80;22301;-43
2021/01/26 07:52:12;;;;;;;3.08;2.20;;;;;;;1.60;71.24;97567.53;1776382;80;21012;-43
2021/01/26 07:54:48;;;;;;;3.42;2.50;;;;;;;1.63;71.01;97530.02;1746372;80;21043;-43
2021/01/26 07:57:17;;;;;;;4.65;2.95;;;;;;;1.60;71.16;97524.02;1776144;80;21174;-43
2021/01/26 07:59:53;;;;;;;2.95;2.12;;;;;;;1.64;71.19;97547.61;1768413;80;21104;-43
2021/01/26 08:02:29;;;;;;;3.67;2.65;;;;;;;1.65;70.60;97606.00;1765586;81;21139;-43
2021/01/26 08:04:58;;;;;;;3.30;2.37;;;;;;;1.69;71.03;97555.36;1765712;81;21715;-43
2021/01/26 08:07:29;;;;;;;3.60;2.90;;;;;;;1.68;70.34;97541.78;1765833;81;21609;-43
2021/01/26 08:10:00;;;;;;;3.40;2.85;;;;;;;1.67;70.49;97554.92;1765449;80;21127;-43
2021/01/26 08:12:37;;;;;;;5.17;2.60;;;;;;;1.65;70.15;97549.13;1765179;80;21123;-43
2021/01/26 08:15:21;;;;;;;3.17;2.45;;;;;;;1.69;70.82;97573.47;1765060;81;21557;-43
2021/01/26 08:17:50;;;;;;;3.20;2.55;;;;;;;1.71;70.53;97573.14;1765172;80;21586;-43
2021/01/26 08:20:28;;;;;;;5.42;2.50;;;;;;;1.67;70.48;97588.30;1765085;80;21143;-42
2021/01/26 08:23:01;;;;;;;2.98;2.20;;;;;;;1.68;70.65;97577.84;1765031;80;21162;-43
2021/01/26 08:25:43;;;;;;;2.65;2.22;;;;;;;1.71;70.48;97598.52;1765218;81;21092;-42
2021/01/26 08:28:41;;;;;;;4.45;2.55;;;;;;;1.67;70.38;97592.31;1765019;80;21369;-43
2021/01/26 08:31:30;;;;;;;2.80;2.42;;;;;;;1.64;70.41;97584.44;1764931;81;21190;-43
2021/01/26 08:34:24;;;;;;;3.47;2.87;;;;;;;1.66;70.28;97604.89;1765217;81;21000;-43
2021/01/26 08:37:17;;;;;;;3.12;2.50;;;;;;;1.68;70.17;97611.23;1765010;81;21135;-43
2021/01/26 08:39:49;;;;;;;2.92;2.37;;;;;;;1.71;70.57;97609.98;1765118;81;21146;-43
2021/01/26 08:42:47;;;;;;;2.85;2.10;;;;;;;1.67;70.19;97615.02;1765010;81;21387;-43
2021/01/26 08:45:20;;;;;;;3.45;2.33;;;;;;;1.68;70.05;97618.69;1765119;80;21004;-43
2021/01/26 08:48:00;;;;;;;2.85;2.40;;;;;;;1.71;70.40;97625.23;1764643;81;21020;-42
2021/01/26 08:50:33;;;;;;;2.37;2.05;;;;;;;1.67;70.31;97641.17;1765099;81;21594;-42
2021/01/26 08:53:28;;;;;;;3.02;2.02;;;;;;;1.69;70.10;97630.91;1769028;80;21174;-43
2021/01/26 08:56:11;;;;;;;3.47;2.30;;;;;;;1.71;70.30;97647.38;1765146;81;21163;-43
2021/01/26 08:58:51;;;;;;;2.92;2.17;;;;;;;1.68;70.06;97649.97;1764293;80;21095;-43
2021/01/26 09:01:36;;;;;;;4.03;2.50;;;;;;;1.63;70.09;97647.55;1782110;79;21114;-43
2021/01/26 09:04:20;;;;;;;4.00;2.22;;;;;;;1.68;70.04;97648.63;1781893;80;21114;-43
2021/01/26 09:06:49;;;;;;;3.08;2.40;;;;;;;1.69;69.95;97662.20;1782047;80;21146;-43
2021/01/26 09:09:35;;;;;;;2.67;2.12;;;;;;;1.71;69.58;97676.77;1782154;80;21190;-43
2021/01/26 09:12:05;;;;;;;2.80;2.05;;;;;;;1.74;70.05;97673.98;1781819;80;21278;-42
2021/01/26 09:14:50;;;;;;;3.58;2.30;;;;;;;1.73;69.57;97674.54;1782156;80;20968;-43
2021/01/26 09:17:33;;;;;;;4.62;2.12;;;;;;;1.71;69.89;97684.00;1781966;80;21039;-43
2021/01/26 09:20:21;;;;;;;3.62;2.50;;;;;;;1.70;69.53;97679.77;1781939;80;21119;-43
2021/01/26 09:22:51;;;;;;;2.42;2.00;;;;;;;1.72;69.70;97693.02;1782116;80;22023;-43
2021/01/26 09:25:23;;;;;;;3.85;2.40;;;;;;;1.66;69.26;97669.00;1781891;80;20999;-43
2021/01/26 09:28:06;;;;;;;2.60;2.27;;;;;;;1.68;69.71;97708.73;1781996;80;21106;-43
2021/01/26 09:30:37;;;;;;;3.40;2.47;;;;;;;1.70;69.69;97729.19;1782017;79;21004;-43
2021/01/26 09:33:27;;;;;;;3.47;2.50;;;;;;;1.70;69.46;97694.45;1781981;79;21121;-43
2021/01/26 09:36:04;;;;;;;2.87;2.02;;;;;;;1.66;69.71;97727.76;1782069;80;21235;-43
2021/01/26 09:38:37;;;;;;;2.80;2.20;;;;;;;1.69;69.78;97731.08;1781870;80;21154;-43
2021/01/26 09:41:16;;;;;;;3.10;2.42;;;;;;;1.67;69.64;97721.86;1781955;80;21012;-42
2021/01/26 09:43:50;;;;;;;2.87;2.33;;;;;;;1.66;69.56;97740.33;1782109;80;21155;-43
2021/01/26 09:46:35;;;;;;;3.40;2.45;;;;;;;1.66;69.87;97731.77;1781982;80;21062;-43
2021/01/26 09:49:11;;;;;;;2.37;2.17;;;;;;;1.68;69.61;97732.77;1781933;80;21194;-42
2021/01/26 09:51:56;;;;;;;3.25;2.70;;;;;;;1.64;69.99;97727.89;1780592;80;21134;-43
2021/01/26 09:54:30;;;;;;;3.40;2.47;;;;;;;1.67;69.82;97741.34;1781722;80;21039;-43
2021/01/26 09:56:58;;;;;;;3.33;2.30;;;;;;;1.65;69.99;97740.11;1781958;80;21039;-43
2021/01/26 09:59:28;;;;;;;3.10;2.60;;;;;;;1.64;69.77;97753.27;1776217;80;21212;-43
2021/01/26 10:01:59;;;;;;;3.95;2.60;;;;;;;1.61;69.01;97728.56;1764976;81;21256;-43
2021/01/26 10:04:27;;;;;;;3.80;1.80;;;;;;;1.62;69.89;97750.93;1765210;81;21077;-43
2021/01/26 10:06:59;;;;;;;2.95;2.60;;;;;;;1.60;69.78;97748.36;1764983;81;21131;-43
2021/01/26 10:09:31;;;;;;;3.83;2.83;;;;;;;1.62;69.72;97751.48;1764957;81;20926;-43
2021/01/26 10:12:37;;;;;;;4.15;3.02;;;;;;;1.64;69.60;97755.39;1765086;81;21147;-43
2021/01/26 10:15:39;;;;;;;3.58;2.70;;;;;;;1.65;69.76;97752.91;1765002;81;22063;-42
2021/01/26 10:18:12;;;;;;;4.60;3.10;;;;;;;1.64;69.53;97763.95;1764639;80;21620;-45
2021/01/26 10:20:49;;;;;;;4.92;2.85;;;;;;;1.67;69.74;97773.95;1765208;81;20976;-45
2021/01/26 10:23:36;;;;;;;3.45;2.70;;;;;;;1.61;69.66;97757.94;1764925;80;21052;-45
2021/01/26 10:26:23;;;;;;;4.00;3.20;;;;;;;1.61;70.02;97764.61;1765042;81;21602;-45
2021/01/26 10:29:12;;;;;;;3.52;2.70;;;;;;;1.63;69.66;97783.77;1764970;79;23509;-44
2021/01/26 10:31:57;;;;;;;4.33;3.33;;;;;;;1.61;69.18;97785.98;1765222;81;21038;-45
2021/01/26 10:34:38;;;;;;;3.75;3.00;;;;;;;1.61;69.31;97801.45;1764199;81;21031;-45
2021/01/26 10:37:17;;;;;;;3.40;2.45;;;;;;;1.65;69.54;97781.52;1764990;81;21629;-45
2021/01/26 10:39:46;;;;;;;3.27;2.90;;;;;;;1.64;69.34;97775.97;1762776;81;21164;-45
2021/01/26 10:42:19;;;;;;;4.25;3.08;;;;;;;1.62;69.64;97799.56;1764878;81;21386;-45
2021/01/26 10:44:54;;;;;;;3.62;3.00;;;;;;;1.61;69.12;97793.44;1743958;81;20984;-45
2021/01/26 10:47:36;;;;;;;4.12;2.85;;;;;;;1.64;69.29;97796.01;1765062;81;20992;-44
2021/01/26 10:50:10;;;;;;;3.65;3.00;;;;;;;1.61;69.94;97829.50;1764986;81;21573;-45
2021/01/26 10:52:44;;;;;;;5.05;3.17;;;;;;;1.65;70.16;97811.67;1765036;81;21036;-45
2021/01/26 10:55:17;;;;;;;4.85;3.35;;;;;;;1.66;69.35;97815.13;1764953;81;21426;-44
2021/01/26 10:57:49;;;;;;;3.27;2.90;;;;;;;1.62;69.65;97808.91;1764953;81;21056;-45
2021/01/26 11:00:26;;;;;;;4.33;3.10;;;;;;;1.71;69.42;97813.55;1764900;80;21193;-45
2021/01/26 11:02:56;;;;;;;4.72;3.20;;;;;;;1.70;69.59;97821.34;1765556;79;21150;-45
2021/01/26 11:05:26;;;;;;;2.95;2.65;;;;;;;1.70;68.96;97858.19;1764933;81;21155;-45
2021/01/26 11:07:54;;;;;;;;;;;;;;;1.73;69.05;97824.69;1767615;81;22647;-45
2021/01/26 11:10:24;;;;;;;3.87;3.20;;;;;;;1.69;69.02;97841.18;1728601;82;20202;-45
2021/01/26 11:12:53;;;;;;;3.05;2.60;;;;;;;1.59;69.21;97826.41;1708027;84;21660;-45
2021/01/26 11:15:26;;;;;;;3.40;2.87;;;;;;;1.66;69.54;97830.59;1764969;80;21214;-45
2021/01/26 11:17:53;;;;;;;;;;;;;;;1.66;69.66;97842.63;1767473;81;21123;-45
2021/01/26 11:20:23;;;;;;;5.58;3.05;;;;;;;1.70;69.53;97867.54;1764968;81;20160;-45
2021/01/26 11:22:52;;;;;;;4.70;2.80;;;;;;;1.66;69.44;97855.20;1764951;81;21051;-45
2021/01/26 11:25:22;;;;;;;3.95;2.83;;;;;;;1.69;69.49;97858.55;1764948;81;21151;-45
2021/01/26 11:27:53;;;;;;;4.12;2.92;;;;;;;1.73;69.29;97841.50;1764946;81;21147;-45
2021/01/26 11:30:21;;;;;;;;;;;;;;;1.78;68.92;97834.36;1790909;79;21139;-45
2021/01/26 11:32:49;;;;;;;3.87;2.55;;;;;;;1.77;69.15;97876.33;1795260;79;21324;-45
2021/01/26 11:35:23;;;;;;;4.47;3.00;;;;;;;1.71;69.50;97861.64;1765040;80;21205;-45
2021/01/26 11:37:52;;;;;;;3.85;3.05;;;;;;;1.74;69.37;97868.41;1764982;81;21401;-45
2021/01/26 11:40:21;;;;;;;4.90;3.30;;;;;;;1.78;69.11;97869.09;1764852;80;21444;-45
2021/01/26 11:42:51;;;;;;;3.75;2.40;;;;;;;1.81;69.21;97877.20;1765008;81;21166;-45
2021/01/26 11:45:28;;;;;;;3.87;2.80;;;;;;;1.83;68.79;97872.31;1765216;81;22270;-45
2021/01/26 11:47:56;;;;;;;3.33;2.87;;;;;;;1.83;68.93;97881.67;1765090;81;21130;-45
2021/01/26 11:50:29;;;;;;;4.03;3.35;;;;;;;1.82;68.82;97890.01;1765158;81;21028;-44
2021/01/26 11:52:59;;;;;;;5.47;3.22;;;;;;;1.85;69.07;97890.11;1765209;81;21606;-44
2021/01/26 11:55:30;;;;;;;4.30;3.10;;;;;;;1.88;68.88;97905.48;1765173;81;21561;-45
2021/01/26 11:58:01;;;;;;;3.47;3.00;;;;;;;1.83;69.12;97893.69;1765106;80;21362;-45
2021/01/26 12:00:32;;;;;;;4.37;2.98;;;;;;;1.80;69.25;97907.70;1773036;80;21474;-45
2021/01/26 12:03:02;;;;;;;3.67;3.02;;;;;;;1.81;68.52;97907.15;1781934;80;21154;-44
2021/01/26 12:05:34;;;;;;;4.17;3.10;;;;;;;1.83;69.30;97917.73;1782050;79;21118;-45
2021/01/26 12:08:03;;;;;;;4.47;3.08;;;;;;;1.84;69.29;97904.58;1782004;80;21146;-45
2021/01/26 12:10:32;;;;;;;5.47;2.75;;;;;;;1.87;69.27;97932.53;1782186;80;21202;-45
2021/01/26 12:13:01;;;;;;;4.28;3.12;;;;;;;1.79;68.92;97915.52;1781845;80;21142;-44
2021/01/26 12:15:35;;;;;;;3.77;3.00;;;;;;;1.82;68.97;97918.84;1782021;80;21146;-45
2021/01/26 12:18:05;;;;;;;4.40;3.25;;;;;;;1.83;68.73;97929.77;1781842;80;22137;-45
2021/01/26 12:20:34;;;;;;;3.85;3.27;;;;;;;1.86;68.98;97928.30;1782255;80;21392;-45
2021/01/26 12:23:03;;;;;;;5.03;3.42;;;;;;;1.84;68.77;97930.55;1781948;80;21200;-45
2021/01/26 12:25:31;;;;;;;4.15;2.98;;;;;;;1.84;68.89;97945.99;1781951;80;20956;-45
2021/01/26 12:28:02;;;;;;;4.30;3.02;;;;;;;1.87;68.28;97947.23;1782055;80;21047;-44
2021/01/26 12:30:30;;;;;;;4.95;3.02;;;;;;;1.87;68.11;97952.02;1807820;79;21015;-45
2021/01/26 12:33:01;;;;;;;4.87;3.20;;;;;;;1.88;68.62;97968.28;1814440;79;21138;-45
2021/01/26 12:35:36;;;;;;;5.55;2.92;;;;;;;1.88;68.02;97945.56;1814244;79;21197;-45